Perdido Beach, Alabama
Current Conditions -  °F | °C
As of 10:15 PM on Friday 31 Oct 2014 (Local Time) from KJKA Reporting Station
Clear Clear  
Wind Chill: 62°   Ceiling: Unl
Heat Index: 62°   Visibility: 10mi
Dew Point: 47°   Wind: 14mph
Humidity: 58%   Direction: 330°NNW
Pressure: 30.06"   Gusts: 21mph
Location:  30.4162°N, 87.5594°W
Report Text: KJKA 010315Z AUTO 33012G18KT 10SM CLR 17/08 A3006 RMK AO2 T01650083
Loading
Personal Weather Stations






























Interactive Weather Map
Tropical Storm Tracking
New forecast layout! Learn more

10-Day Weather Forecast

Advertisements
Track Severe Weather on mobile